createdAt,value
2022-07-28T00:01:56.056Z,15.27
2022-07-28T00:03:57.109Z,15.18
2022-07-28T00:05:58.153Z,15.29
2022-07-28T00:07:59.582Z,15.34
2022-07-28T00:10:01.111Z,15.26
2022-07-28T00:12:01.875Z,15.31
2022-07-28T00:14:03.672Z,15.29
2022-07-28T00:16:05.451Z,15.21
2022-07-28T00:18:06.744Z,15.12
2022-07-28T00:20:07.852Z,15.12
2022-07-28T00:22:09.758Z,15.06
2022-07-28T00:24:11.693Z,15.01
2022-07-28T00:26:12.872Z,15
2022-07-28T00:28:13.966Z,14.88
2022-07-28T00:30:15.771Z,14.81
2022-07-28T00:32:17.285Z,14.81
2022-07-28T00:34:19.004Z,14.78
2022-07-28T00:36:20.469Z,14.68
2022-07-28T00:38:21.595Z,14.59
2022-07-28T00:40:23.189Z,14.55
2022-07-28T00:42:24.798Z,14.49
2022-07-28T00:44:26.455Z,14.4
2022-07-28T00:46:27.491Z,14.35
2022-07-28T00:48:28.949Z,14.44
2022-07-28T00:50:29.992Z,14.33
2022-07-28T00:52:31.697Z,14.34
2022-07-28T00:54:33.256Z,14.67
2022-07-28T00:56:35.059Z,14.74
2022-07-28T00:58:36.696Z,14.49
2022-07-28T01:00:37.824Z,14.27
2022-07-28T01:02:39.473Z,14.05
2022-07-28T01:04:48.703Z,14.04
2022-07-28T01:06:42.126Z,13.88
2022-07-28T01:08:43.236Z,13.8
2022-07-28T01:10:44.427Z,13.73
2022-07-28T01:12:45.862Z,13.76
2022-07-28T01:14:47.451Z,13.77
2022-07-28T01:16:48.424Z,13.91
2022-07-28T01:18:49.864Z,14
2022-07-28T01:20:51.437Z,14.03
2022-07-28T01:22:53.063Z,14.09
2022-07-28T01:24:54.927Z,14.08
2022-07-28T01:26:56.258Z,13.86
2022-07-28T01:28:58.131Z,13.65
2022-07-28T01:30:59.700Z,13.56
2022-07-28T01:33:00.570Z,13.55
2022-07-28T01:35:01.661Z,13.59
2022-07-28T01:37:03.418Z,13.6
2022-07-28T01:39:04.490Z,13.61
2022-07-28T01:41:05.661Z,13.7
2022-07-28T01:43:07.085Z,13.61
2022-07-28T01:45:08.980Z,13.53
2022-07-28T01:47:10.274Z,13.5
2022-07-28T01:49:11.876Z,13.54
2022-07-28T01:51:13.038Z,13.6
2022-07-28T01:53:14.080Z,13.58
2022-07-28T01:55:15.842Z,13.64
2022-07-28T01:57:17.403Z,13.58
2022-07-28T01:59:19.067Z,13.49
2022-07-28T02:01:20.213Z,13.59
2022-07-28T02:03:21.856Z,13.64
2022-07-28T02:05:23.680Z,13.59
2022-07-28T02:08:08.684Z,13.54
2022-07-28T02:10:10.254Z,13.49
2022-07-28T02:12:11.830Z,13.56
2022-07-28T02:14:13.291Z,13.61
2022-07-28T02:16:14.798Z,13.61
2022-07-28T02:18:16.347Z,13.55
2022-07-28T02:20:18.276Z,13.46
2022-07-28T02:22:20.067Z,13.4
2022-07-28T02:24:20.989Z,13.29
2022-07-28T02:26:22.805Z,13.31
2022-07-28T02:28:23.986Z,13.21
2022-07-28T02:30:25.270Z,13.07
2022-07-28T02:32:27.592Z,12.93
2022-07-28T02:34:28.232Z,12.82
2022-07-28T02:36:29.298Z,12.79
2022-07-28T02:38:31.077Z,12.79
2022-07-28T02:40:32.208Z,12.72
2022-07-28T02:42:33.553Z,12.59
2022-07-28T02:44:35.040Z,12.6
2022-07-28T02:46:36.676Z,12.61
2022-07-28T02:48:37.602Z,12.91
2022-07-28T02:50:39.430Z,12.95
2022-07-28T02:52:40.521Z,12.85
2022-07-28T02:54:42.009Z,12.84
2022-07-28T02:56:53.083Z,12.75
2022-07-28T02:58:44.715Z,12.64
2022-07-28T03:00:45.689Z,12.64
2022-07-28T03:02:47.405Z,12.7
2022-07-28T03:04:48.608Z,12.74
2022-07-28T03:06:50.402Z,12.8
2022-07-28T03:08:51.798Z,12.82
2022-07-28T03:10:53.426Z,12.79
2022-07-28T03:12:54.375Z,12.75
2022-07-28T03:14:56.161Z,12.63
2022-07-28T03:16:57.334Z,12.54
2022-07-28T03:18:58.921Z,12.53
2022-07-28T03:21:00.716Z,12.7
2022-07-28T03:23:02.165Z,12.64
2022-07-28T03:25:03.201Z,12.75
2022-07-28T03:27:05.020Z,12.7
2022-07-28T03:29:06.189Z,12.79
2022-07-28T03:31:07.434Z,12.76
2022-07-28T03:38:17.838Z,12.56
2022-07-28T03:39:19.719Z,12.42
2022-07-28T03:42:25.488Z,12.38
2022-07-28T03:43:18.791Z,12.34
2022-07-28T03:45:20.987Z,12.42
2022-07-28T03:47:19.666Z,12.36
2022-07-28T03:49:21.071Z,12.29
2022-07-28T03:51:22.333Z,12.17
2022-07-28T03:53:23.394Z,12.17
2022-07-28T03:55:24.774Z,12.31
2022-07-28T03:57:26.414Z,12.22
2022-07-28T03:59:27.617Z,12.21
2022-07-28T04:01:29.079Z,12.16
2022-07-28T04:03:35.144Z,12.18
2022-07-28T04:05:32.466Z,12.08
2022-07-28T04:07:33.689Z,12.06
2022-07-28T04:09:35.120Z,12.03
2022-07-28T04:11:36.154Z,12.07
2022-07-28T04:13:37.635Z,12.2
2022-07-28T04:15:38.724Z,12.3
2022-07-28T04:17:40.558Z,12.44
2022-07-28T04:19:42.270Z,12.55
2022-07-28T04:21:43.580Z,12.61
2022-07-28T04:23:44.827Z,12.53
2022-07-28T04:25:46.638Z,12.54
2022-07-28T04:27:47.945Z,12.47
2022-07-28T04:29:48.967Z,12.34
2022-07-28T04:31:49.863Z,12.33
2022-07-28T04:33:51.515Z,12.36
2022-07-28T04:35:53.364Z,12.4
2022-07-28T04:37:55.243Z,12.36
2022-07-28T04:39:56.335Z,12.37
2022-07-28T04:41:57.534Z,12.41
2022-07-28T04:43:59.071Z,12.47
2022-07-28T04:46:00.130Z,12.54
2022-07-28T04:48:01.144Z,12.64
2022-07-28T04:50:02.377Z,12.74
2022-07-28T04:52:04.055Z,12.82
2022-07-28T04:54:05.605Z,12.83
2022-07-28T04:58:07.713Z,12.87
2022-07-28T05:00:09.434Z,12.84
2022-07-28T05:02:10.442Z,12.93
2022-07-28T05:04:12.084Z,13.14
2022-07-28T05:06:13.314Z,12.98
2022-07-28T05:08:14.577Z,12.89
2022-07-28T05:10:16.201Z,12.86
2022-07-28T05:12:18.033Z,12.92
2022-07-28T05:14:19.005Z,13.09
2022-07-28T05:16:20.205Z,13.36
2022-07-28T05:18:21.328Z,13.57
2022-07-28T05:20:22.673Z,13.93
2022-07-28T05:22:23.559Z,14.25
2022-07-28T05:24:24.743Z,14.13
2022-07-28T05:26:26.089Z,14.19
2022-07-28T05:28:27.276Z,13.99
2022-07-28T05:30:28.984Z,14.02
2022-07-28T05:32:30.224Z,13.95
2022-07-28T05:34:31.419Z,14.1
2022-07-28T05:36:33.095Z,14.13
2022-07-28T05:38:34.119Z,14.45
2022-07-28T05:40:35.366Z,14.98
2022-07-28T05:42:36.541Z,15.03
2022-07-28T05:44:38.353Z,14.71
2022-07-28T05:46:39.168Z,14.43
2022-07-28T05:48:40.696Z,14.54
2022-07-28T05:50:41.944Z,15.12
2022-07-28T05:52:43.103Z,15.14
2022-07-28T05:54:44.470Z,15.1
2022-07-28T05:56:50.111Z,14.92
2022-07-28T05:58:47.771Z,15.02
2022-07-28T06:00:49.414Z,15.47
2022-07-28T06:02:50.438Z,15.72
2022-07-28T06:04:51.460Z,16.05
2022-07-28T06:06:52.774Z,16.05
2022-07-28T06:08:54.329Z,15.84
2022-07-28T06:10:55.955Z,15.82
2022-07-28T06:12:57.735Z,16.07
2022-07-28T06:14:58.925Z,16
2022-07-28T06:16:59.844Z,16
2022-07-28T06:19:00.996Z,16.29
2022-07-28T06:21:03.143Z,16.47
2022-07-28T06:23:04.677Z,16.66
2022-07-28T06:25:05.541Z,17.11
2022-07-28T06:27:06.542Z,17.96
2022-07-28T06:29:08.070Z,18.48
2022-07-28T06:31:09.025Z,18.46
2022-07-28T06:33:13.949Z,18.27
2022-07-28T06:35:12.134Z,18.31
2022-07-28T06:37:13.530Z,18.08
2022-07-28T06:39:14.741Z,17.8
2022-07-28T06:41:15.560Z,17.92
2022-07-28T06:43:16.732Z,17.83
2022-07-28T06:45:19.867Z,18.42
2022-07-28T06:47:19.221Z,18.16
2022-07-28T06:49:20.382Z,17.8
2022-07-28T06:51:21.140Z,18.23
2022-07-28T06:53:22.745Z,17.76
2022-07-28T06:55:34.903Z,18.23
2022-07-28T06:57:28.028Z,18.43
2022-07-28T06:59:27.479Z,18.3
2022-07-28T07:01:29.037Z,18.81
2022-07-28T07:03:30.437Z,19.29
2022-07-28T07:05:32.679Z,19.33
2022-07-28T07:07:33.873Z,19.44
2022-07-28T07:09:34.992Z,19.3
2022-07-28T07:11:35.999Z,19.24
2022-07-28T07:13:37.540Z,19.31
2022-07-28T07:15:38.502Z,19.3
2022-07-28T07:17:39.461Z,19.45
2022-07-28T07:19:40.898Z,19.59
2022-07-28T07:21:42.518Z,19.53
2022-07-28T07:23:44.005Z,20.1
2022-07-28T07:25:45.482Z,19.79
2022-07-28T07:27:47.187Z,20.44
2022-07-28T07:29:48.416Z,20.19
2022-07-28T07:31:52.728Z,20.14
2022-07-28T07:33:51.597Z,20.74
2022-07-28T07:35:52.684Z,20.4
2022-07-28T07:37:54.287Z,20.36
2022-07-28T07:39:56.220Z,20.44
2022-07-28T07:41:57.191Z,20.69
2022-07-28T07:43:58.456Z,21.39
2022-07-28T07:46:00.173Z,21.17
2022-07-28T07:48:01.654Z,21.12
2022-07-28T07:50:04.274Z,20.81
2022-07-28T07:52:04.230Z,20.91
2022-07-28T07:54:05.742Z,21.4
2022-07-28T07:56:06.554Z,21.45
2022-07-28T07:58:07.629Z,21.56
2022-07-28T08:00:28.475Z,21.39
2022-07-28T08:02:11.041Z,21.17
2022-07-28T08:04:12.829Z,22.02
2022-07-28T08:06:14.134Z,22.09
2022-07-28T08:08:14.993Z,21.67
2022-07-28T08:10:16.356Z,21.97
2022-07-28T08:12:17.912Z,22.23
2022-07-28T08:14:19.381Z,22.58
2022-07-28T08:16:20.731Z,22.42
2022-07-28T08:18:22.147Z,22.4
2022-07-28T08:20:23.823Z,22.83
2022-07-28T08:22:25.442Z,22.23
2022-07-28T08:24:27.847Z,22.83
2022-07-28T08:26:27.510Z,23.23
2022-07-28T08:28:28.484Z,23.33
2022-07-28T08:30:32.571Z,22.37
2022-07-28T08:32:30.916Z,23.53
2022-07-28T08:34:32.918Z,23.15
2022-07-28T08:36:33.270Z,23.33
2022-07-28T08:38:34.544Z,23.32
2022-07-28T08:40:35.985Z,23.55
2022-07-28T08:42:37.205Z,23.22
2022-07-28T08:44:38.060Z,23.16
2022-07-28T08:46:39.080Z,23.67
2022-07-28T08:48:40.555Z,23.26
2022-07-28T08:50:41.411Z,23.53
2022-07-28T08:51:26.120Z,23.85
2022-07-28T08:53:27.512Z,23.66
2022-07-28T08:55:38.037Z,24.51
2022-07-28T08:57:30.344Z,23.5
2022-07-28T08:59:31.729Z,24.71
2022-07-28T09:01:38.204Z,24.34
2022-07-28T09:03:34.712Z,24.5
2022-07-28T09:05:35.771Z,23.89
2022-07-28T09:07:36.700Z,24.2
2022-07-28T09:09:37.515Z,23.5
2022-07-28T09:11:39.055Z,24.59
2022-07-28T09:13:39.899Z,23.87
2022-07-28T09:15:41.467Z,24.26
2022-07-28T09:17:43.061Z,24.03
2022-07-28T09:19:44.513Z,24.82
2022-07-28T09:21:46.129Z,24.7
2022-07-28T09:23:47.569Z,24.62
2022-07-28T09:25:48.830Z,24.87
2022-07-28T09:27:50.299Z,24.12
2022-07-28T09:29:51.776Z,24.55
2022-07-28T09:31:55.920Z,24.54
2022-07-28T09:33:54.442Z,24.56
2022-07-28T09:37:57.043Z,24.87
2022-07-28T09:39:58.111Z,24.71
2022-07-28T09:41:59.040Z,24.78
2022-07-28T09:43:59.865Z,25.27
2022-07-28T09:46:01.380Z,25.16
2022-07-28T09:48:02.664Z,25.22
2022-07-28T09:50:03.907Z,25.66
2022-07-28T09:52:04.670Z,24.86
2022-07-28T09:54:05.976Z,25.2
2022-07-28T09:56:06.897Z,24.84
2022-07-28T09:58:08.549Z,25.49
2022-07-28T10:00:09.901Z,25.36
2022-07-28T10:02:11.415Z,25.4
2022-07-28T10:04:12.746Z,25.06
2022-07-28T10:06:14.230Z,25.26
2022-07-28T10:08:15.648Z,25.55
2022-07-28T10:10:17.265Z,26.01
2022-07-28T10:12:18.695Z,26.09
2022-07-28T10:14:19.537Z,26.16
2022-07-28T10:16:21.457Z,25.6
2022-07-28T10:18:23.067Z,25.39
2022-07-28T10:20:24.036Z,25.67
2022-07-28T10:22:25.463Z,26.08
2022-07-28T10:24:27.123Z,26.11
2022-07-28T10:26:28.787Z,26.13
2022-07-28T10:28:29.741Z,26.96
2022-07-28T10:30:30.754Z,25.84
2022-07-28T10:32:32.151Z,26.8
2022-07-28T10:34:33.166Z,26.57
2022-07-28T10:36:34.084Z,26.73
2022-07-28T10:38:35.551Z,26.16
2022-07-28T10:40:37.102Z,26.27
2022-07-28T10:42:37.964Z,26.4
2022-07-28T10:44:39.028Z,26.85
2022-07-28T10:46:40.789Z,26.45
2022-07-28T10:48:43.394Z,27.06
2022-07-28T10:50:43.839Z,26.53
2022-07-28T10:52:49.053Z,26.82
2022-07-28T10:54:46.263Z,26.4
2022-07-28T10:56:48.195Z,26.29
2022-07-28T10:58:49.085Z,26.98
2022-07-28T11:00:55.833Z,27.3
2022-07-28T11:02:51.579Z,28.04
2022-07-28T11:04:52.455Z,27.41
2022-07-28T11:06:53.527Z,27.06
2022-07-28T11:08:55.054Z,26.53
2022-07-28T11:11:00.807Z,26.42
2022-07-28T11:12:57.950Z,26.71
2022-07-28T11:14:58.745Z,26.66
2022-07-28T11:16:59.831Z,27.34
2022-07-28T11:19:00.488Z,27.79
2022-07-28T11:21:01.869Z,27.58
2022-07-28T11:25:18.144Z,27.56
2022-07-28T11:27:04.869Z,27.49
2022-07-28T11:29:06.375Z,26.85
2022-07-28T11:31:07.808Z,26.73
2022-07-28T11:33:09.336Z,27.05
2022-07-28T11:35:10.359Z,26.85
2022-07-28T11:37:13.358Z,27.11
2022-07-28T11:39:12.408Z,27.94
2022-07-28T11:41:13.582Z,27.76
2022-07-28T11:43:14.761Z,26.86
2022-07-28T11:45:16.258Z,27.2
2022-07-28T11:47:17.582Z,27.01
2022-07-28T11:49:18.853Z,26.85
2022-07-28T11:51:19.669Z,27.34
2022-07-28T11:53:21.229Z,27.52
2022-07-28T11:55:49.514Z,27.12
2022-07-28T11:57:32.557Z,26.87
2022-07-28T11:59:24.947Z,26.36
2022-07-28T12:01:25.993Z,26.3
2022-07-28T12:03:49.762Z,26.99
2022-07-28T12:05:28.389Z,26.54
2022-07-28T12:07:30.673Z,26.55
2022-07-28T12:09:41.245Z,27.15
2022-07-28T12:11:33.039Z,27.78
2022-07-28T12:13:33.858Z,28.2
2022-07-28T12:15:35.218Z,27.64
2022-07-28T12:17:36.923Z,28.73
2022-07-28T12:19:38.392Z,27.95
2022-07-28T12:21:45.923Z,28.3
2022-07-28T12:23:46.118Z,28.29
2022-07-28T12:25:42.121Z,29
2022-07-28T12:27:44.686Z,28.95
2022-07-28T12:29:43.852Z,27.94
2022-07-28T12:31:45.376Z,27.72
2022-07-28T12:33:46.864Z,27.35
2022-07-28T12:35:47.920Z,27.09
2022-07-28T12:37:49.656Z,27.1
2022-07-28T12:39:50.714Z,27.17
2022-07-28T12:41:51.613Z,27.38
2022-07-28T12:43:53.186Z,27.68
2022-07-28T12:45:54.089Z,27.46
2022-07-28T12:47:54.895Z,27.83
2022-07-28T12:49:58.581Z,27.2
2022-07-28T12:51:57.919Z,27.46
2022-07-28T12:53:59.382Z,27.83
2022-07-28T12:56:00.214Z,27.67
2022-07-28T12:58:01.320Z,27.72
2022-07-28T13:00:02.669Z,26.95
2022-07-28T13:02:04.195Z,27.29
2022-07-28T13:04:05.178Z,27.37
2022-07-28T13:06:06.704Z,27.22
2022-07-28T13:08:08.093Z,27.31
2022-07-28T13:10:11.502Z,27.02
2022-07-28T13:12:11.176Z,27.73
2022-07-28T13:14:12.814Z,27.37
2022-07-28T13:16:13.953Z,26.9
2022-07-28T13:18:15.273Z,27.48
2022-07-28T13:20:16.543Z,27.8
2022-07-28T13:22:17.640Z,28.25
2022-07-28T13:24:18.901Z,27.97
2022-07-28T13:26:19.659Z,28.59
2022-07-28T13:28:20.901Z,29.63
2022-07-28T13:30:22.451Z,28.96
2022-07-28T13:32:23.386Z,29.34
2022-07-28T13:34:24.135Z,30.16
2022-07-28T13:36:24.895Z,29.04
2022-07-28T13:38:26.045Z,30.28
2022-07-28T13:40:27.024Z,29.46
2022-07-28T13:42:28.587Z,29.57
2022-07-28T13:44:30.275Z,29.87
2022-07-28T13:46:30.990Z,29.07
2022-07-28T13:48:32.178Z,27.85
2022-07-28T13:50:33.209Z,28.1
2022-07-28T13:52:35.073Z,27.61
2022-07-28T13:54:35.484Z,27.63
2022-07-28T13:56:36.984Z,27.58
2022-07-28T13:58:38.536Z,27.41
2022-07-28T14:00:39.784Z,28.06
2022-07-28T14:02:44.152Z,28.42
2022-07-28T14:04:43.162Z,28.95
2022-07-28T14:06:44.515Z,28.52
2022-07-28T14:08:45.424Z,28.57
2022-07-28T14:10:48.237Z,28.58
2022-07-28T14:12:47.697Z,28.56
2022-07-28T14:14:48.893Z,29
2022-07-28T14:16:49.519Z,28.82
2022-07-28T14:18:50.783Z,28.87
2022-07-28T14:20:52.482Z,29.32
2022-07-28T14:22:53.326Z,28.89
2022-07-28T14:24:54.771Z,28.83
2022-07-28T14:26:55.454Z,28.55
2022-07-28T14:28:57.038Z,28.57
2022-07-28T14:30:58.478Z,28.58
2022-07-28T14:32:59.758Z,28.84
2022-07-28T14:35:02.159Z,29.18
2022-07-28T14:37:03.376Z,28.58
2022-07-28T14:39:05.003Z,29.05
2022-07-28T14:41:04.721Z,28.72
2022-07-28T14:43:06.724Z,29.34
2022-07-28T14:45:07.731Z,29.54
2022-07-28T14:47:09.589Z,29.06
2022-07-28T14:49:10.961Z,29.92
2022-07-28T14:51:12.113Z,29.52
2022-07-28T14:53:13.615Z,28.79
2022-07-28T14:55:14.642Z,29.23
2022-07-28T14:57:15.792Z,28.86
2022-07-28T14:59:16.837Z,29.5
2022-07-28T15:01:18.255Z,28.83
2022-07-28T15:03:19.754Z,29.11
2022-07-28T15:05:21.238Z,28.47
2022-07-28T15:07:22.066Z,28.31
2022-07-28T15:09:23.084Z,28.98
2022-07-28T15:11:23.910Z,28.86
2022-07-28T15:13:25.401Z,29.02
2022-07-28T15:15:26.319Z,29.08
2022-07-28T15:17:27.986Z,28.44
2022-07-28T15:19:29.262Z,28.52
2022-07-28T15:21:34.448Z,28.62
2022-07-28T15:23:32.379Z,28.59
2022-07-28T15:25:33.187Z,28.31
2022-07-28T15:27:34.317Z,28.73
2022-07-28T15:29:35.418Z,28.59
2022-07-28T15:31:36.974Z,28.1
2022-07-28T15:33:43.916Z,27.67
2022-07-28T15:35:58.863Z,27.78
2022-07-28T15:37:40.385Z,27.75
2022-07-28T15:40:25.587Z,27.84
2022-07-28T15:42:26.760Z,27.88
2022-07-28T15:44:28.105Z,27.84
2022-07-28T15:46:29.161Z,27.78
2022-07-28T15:48:30.166Z,27.72
2022-07-28T15:50:31.201Z,27.66
2022-07-28T15:52:32.250Z,27.87
2022-07-28T15:54:34.590Z,28.07
2022-07-28T15:56:35.811Z,28.34
2022-07-28T15:58:36.919Z,28.05
2022-07-28T16:00:38.599Z,27.9
2022-07-28T16:02:39.578Z,28.02
2022-07-28T16:04:41.154Z,27.81
2022-07-28T16:06:42.038Z,27.86
2022-07-28T16:08:43.449Z,27.72
2022-07-28T16:10:44.257Z,27.87
2022-07-28T16:12:45.555Z,27.81
2022-07-28T16:14:46.576Z,28.29
2022-07-28T16:16:47.613Z,28.08
2022-07-28T16:18:59.141Z,27.75
2022-07-28T16:20:49.780Z,27.75
2022-07-28T16:22:51.353Z,27.58
2022-07-28T16:24:52.300Z,27.67
2022-07-28T16:26:53.830Z,27.6
2022-07-28T16:28:54.776Z,27.62
2022-07-28T16:30:55.900Z,27.56
2022-07-28T16:32:57.595Z,27.65
2022-07-28T16:34:59.257Z,27.81
2022-07-28T16:37:00.170Z,27.98
2022-07-28T16:39:01.345Z,28.34
2022-07-28T16:41:02.291Z,27.95
2022-07-28T16:43:03.706Z,28.29
2022-07-28T16:45:04.910Z,28.22
2022-07-28T16:47:06.243Z,28.35
2022-07-28T16:49:07.631Z,28.83
2022-07-28T16:51:08.384Z,28.52
2022-07-28T16:53:09.934Z,28.53
2022-07-28T16:55:15.274Z,28.57
2022-07-28T16:57:12.988Z,28.84
2022-07-28T16:59:14.621Z,29.02
2022-07-28T17:01:15.716Z,29.31
2022-07-28T17:03:16.755Z,28.83
2022-07-28T17:05:18.227Z,28.96
2022-07-28T17:07:19.786Z,28.21
2022-07-28T17:09:20.607Z,28.09
2022-07-28T17:11:22.365Z,28.22
2022-07-28T17:13:23.979Z,27.75
2022-07-28T17:15:24.923Z,27.51
2022-07-28T17:17:26.211Z,27.42
2022-07-28T17:19:27.685Z,27.39
2022-07-28T17:21:28.552Z,27.38
2022-07-28T17:23:29.443Z,27.32
2022-07-28T17:26:21.082Z,27.23
2022-07-28T17:27:37.568Z,27.12
2022-07-28T17:29:33.959Z,27.07
2022-07-28T17:31:35.399Z,27.08
2022-07-28T17:33:37.130Z,27.05
2022-07-28T17:35:37.968Z,26.88
2022-07-28T17:37:38.821Z,26.79
2022-07-28T17:39:39.814Z,26.62
2022-07-28T17:41:41.474Z,26.49
2022-07-28T17:43:45.580Z,26.39
2022-07-28T17:45:44.392Z,26.38
2022-07-28T17:47:45.895Z,26.31
2022-07-28T17:49:46.750Z,26.24
2022-07-28T17:51:48.178Z,26.13
2022-07-28T17:53:50.252Z,26.09
2022-07-28T17:55:54.050Z,26
2022-07-28T17:57:52.050Z,25.91
2022-07-28T17:59:53.225Z,25.85
2022-07-28T18:01:55.027Z,25.81
2022-07-28T18:04:00.552Z,25.83
2022-07-28T18:05:57.832Z,25.83
2022-07-28T18:07:59.343Z,25.74
2022-07-28T18:10:00.254Z,25.63
2022-07-28T18:12:01.521Z,25.57
2022-07-28T18:14:03.505Z,25.59
2022-07-28T18:16:04.205Z,25.48
2022-07-28T18:18:05.152Z,25.52
2022-07-28T18:20:06.232Z,25.35
2022-07-28T18:22:08.064Z,25.28
2022-07-28T18:24:09.436Z,25.19
2022-07-28T18:26:10.986Z,25.14
2022-07-28T18:28:11.991Z,25.01
2022-07-28T18:30:12.906Z,24.92
2022-07-28T18:32:13.789Z,24.91
2022-07-28T18:34:15.910Z,24.81
2022-07-28T18:36:16.967Z,24.79
2022-07-28T18:38:18.332Z,24.69
2022-07-28T18:40:20.087Z,24.55
2022-07-28T18:42:20.919Z,24.63
2022-07-28T18:44:22.456Z,24.5
2022-07-28T18:46:23.903Z,24.52
2022-07-28T18:48:25.484Z,24.41
2022-07-28T18:50:27.747Z,24.25
2022-07-28T18:52:28.940Z,24.15
2022-07-28T18:54:30.411Z,24
2022-07-28T18:56:32.106Z,23.83
2022-07-28T18:58:33.872Z,23.72
2022-07-28T19:00:34.830Z,23.64
2022-07-28T19:02:36.538Z,23.57
2022-07-28T19:04:37.571Z,23.39
2022-07-28T19:06:38.682Z,23.25
2022-07-28T19:08:40.240Z,23.03
2022-07-28T19:10:41.961Z,22.94
2022-07-28T19:12:43.303Z,22.85
2022-07-28T19:14:45.009Z,22.72
2022-07-28T19:16:46.416Z,22.75
2022-07-28T19:18:47.979Z,22.66
2022-07-28T19:20:49.676Z,22.47
2022-07-28T19:22:50.971Z,22.55
2022-07-28T19:24:52.673Z,22.31
2022-07-28T19:26:54.061Z,22.26
2022-07-28T19:28:54.839Z,22.16
2022-07-28T19:30:56.557Z,22.12
2022-07-28T19:32:57.766Z,22.09
2022-07-28T19:34:59.315Z,22.06
2022-07-28T19:37:01.010Z,21.9
2022-07-28T19:39:02.213Z,21.84
2022-07-28T19:41:03.561Z,21.81
2022-07-28T19:43:05.089Z,21.76
2022-07-28T19:45:06.878Z,21.59
2022-07-28T19:47:08.257Z,21.67
2022-07-28T19:49:09.745Z,21.59
2022-07-28T19:51:10.612Z,21.59
2022-07-28T19:53:14.889Z,21.59
2022-07-28T19:55:12.931Z,21.64
2022-07-28T19:57:14.657Z,21.7
2022-07-28T19:59:15.762Z,21.77
2022-07-28T20:01:16.870Z,21.71
2022-07-28T20:04:00.384Z,21.67
2022-07-28T20:05:19.449Z,21.61
2022-07-28T20:07:20.851Z,21.57
2022-07-28T20:09:21.813Z,21.54
2022-07-28T20:11:24.294Z,21.56
2022-07-28T20:13:24.213Z,21.65
2022-07-28T20:15:25.092Z,21.6
2022-07-28T20:17:37.767Z,21.65
2022-07-28T20:19:28.011Z,21.61
2022-07-28T20:21:29.487Z,21.62
2022-07-28T20:23:30.660Z,21.65
2022-07-28T20:25:31.682Z,21.59
2022-07-28T20:27:32.586Z,21.56
2022-07-28T20:29:33.633Z,21.69
2022-07-28T20:31:34.584Z,21.82
2022-07-28T20:33:35.535Z,21.83
2022-07-28T20:35:36.341Z,21.81
2022-07-28T20:37:37.977Z,21.81
2022-07-28T20:39:44.689Z,21.65
2022-07-28T20:41:40.267Z,21.45
2022-07-28T20:43:42.082Z,21.28
2022-07-28T20:45:43.592Z,21.08
2022-07-28T20:47:44.666Z,21.03
2022-07-28T20:49:46.467Z,20.87
2022-07-28T20:51:50.789Z,20.81
2022-07-28T20:53:48.339Z,20.82
2022-07-28T20:55:49.231Z,20.82
2022-07-28T20:57:53.002Z,20.82
2022-07-28T20:59:51.907Z,20.84
2022-07-28T21:01:53.053Z,20.85
2022-07-28T21:03:54.078Z,20.97
2022-07-28T21:05:55.837Z,20.98
2022-07-28T21:09:58.366Z,20.8
2022-07-28T21:11:59.552Z,20.84
2022-07-28T21:14:01.021Z,20.84
2022-07-28T21:16:02.426Z,20.72
2022-07-28T21:18:04.143Z,20.62
2022-07-28T21:20:05.967Z,20.53
2022-07-28T21:22:07.004Z,20.45
2022-07-28T21:24:08.207Z,20.36
2022-07-28T21:26:09.232Z,20.34
2022-07-28T21:28:10.295Z,20.33
2022-07-28T21:30:12.164Z,20.33
2022-07-28T21:32:13.161Z,20.26
2022-07-28T21:34:15.104Z,20.29
2022-07-28T21:36:15.777Z,20.26
2022-07-28T21:38:17.329Z,20.14
2022-07-28T21:40:18.408Z,20.17
2022-07-28T21:42:19.578Z,20.15
2022-07-28T21:44:21.204Z,20.15
2022-07-28T21:46:22.100Z,20.28
2022-07-28T21:48:23.271Z,20.29
2022-07-28T21:50:24.983Z,20.34
2022-07-28T21:52:26.264Z,20.35
2022-07-28T21:54:27.766Z,20.38
2022-07-28T21:56:28.943Z,20.46
2022-07-28T21:58:30.149Z,20.42
2022-07-28T22:00:31.409Z,20.45
2022-07-28T22:02:32.858Z,20.48
2022-07-28T22:04:33.798Z,20.45
2022-07-28T22:06:35.143Z,20.44
2022-07-28T22:08:36.043Z,20.48
2022-07-28T22:10:37.769Z,20.49
2022-07-28T22:12:39.377Z,20.44
2022-07-28T22:14:40.520Z,20.43
2022-07-28T22:16:42.100Z,20.38
2022-07-28T22:18:43.513Z,20.37
2022-07-28T22:20:45.124Z,20.38
2022-07-28T22:22:46.646Z,20.32
2022-07-28T22:25:31.657Z,20.26
2022-07-28T22:27:33.363Z,20.27
2022-07-28T22:29:34.433Z,20.3
2022-07-28T22:31:35.400Z,20.26
2022-07-28T22:33:36.261Z,20.24
2022-07-28T22:35:37.445Z,20.16
2022-07-28T22:37:38.288Z,20.19
2022-07-28T22:39:39.394Z,20.14
2022-07-28T22:41:41.211Z,20.06
2022-07-28T22:45:49.920Z,19.96
2022-07-28T22:47:45.711Z,19.92
2022-07-28T22:49:47.066Z,19.92
2022-07-28T22:51:48.319Z,19.89
2022-07-28T22:53:49.419Z,19.84
2022-07-28T22:55:51.118Z,19.56
2022-07-28T22:57:52.326Z,19.33
2022-07-28T22:59:53.969Z,19.26
2022-07-28T23:01:55.378Z,19.17
2022-07-28T23:03:56.694Z,19.21
2022-07-28T23:05:58.189Z,19.15
2022-07-28T23:07:59.746Z,19.07
2022-07-28T23:10:00.897Z,18.96
2022-07-28T23:12:02.037Z,18.93
2022-07-28T23:14:03.336Z,18.88
2022-07-28T23:16:04.558Z,18.94
2022-07-28T23:18:06.290Z,19.32
2022-07-28T23:20:07.970Z,19.2
2022-07-28T23:22:08.969Z,19.16
2022-07-28T23:24:10.433Z,19.22
2022-07-28T23:26:12.065Z,19
2022-07-28T23:28:13.290Z,18.9
2022-07-28T23:30:14.380Z,19.01
2022-07-28T23:32:17.167Z,19.06
2022-07-28T23:34:17.184Z,19.29
2022-07-28T23:36:26.206Z,19.38
2022-07-28T23:38:19.427Z,19.42
2022-07-28T23:40:20.639Z,19.3
2022-07-28T23:42:22.339Z,19.14
2022-07-28T23:44:23.926Z,19.13
2022-07-28T23:46:25.475Z,19.01
2022-07-28T23:48:27.255Z,18.85
2022-07-28T23:50:28.229Z,18.86
2022-07-28T23:52:29.870Z,18.87
2022-07-28T23:54:30.876Z,18.94
2022-07-28T23:56:32.344Z,18.91
2022-07-28T23:58:33.771Z,18.93
